sensor_id;sensor_type;location;lat;lon;timestamp;pressure;altitude;pressure_sealevel;temperature;humidity
56825;BME280;42705;50.326;18.772;2024-02-15T00:00:42;98953.27;;;6.68;64.98
56825;BME280;42705;50.326;18.772;2024-02-15T00:06:25;98960.89;;;6.65;65.33
56825;BME280;42705;50.326;18.772;2024-02-15T00:11:47;98959.44;;;6.64;65.53
56825;BME280;42705;50.326;18.772;2024-02-15T00:17:09;98962.95;;;6.63;65.31
56825;BME280;42705;50.326;18.772;2024-02-15T00:22:31;98963.81;;;6.55;65.31
56825;BME280;42705;50.326;18.772;2024-02-15T00:27:55;98970.81;;;6.49;65.65
56825;BME280;42705;50.326;18.772;2024-02-15T00:33:17;98975.26;;;6.47;65.68
56825;BME280;42705;50.326;18.772;2024-02-15T00:38:38;98979.83;;;6.47;65.66
56825;BME280;42705;50.326;18.772;2024-02-15T00:44:01;98981.27;;;6.46;65.87
56825;BME280;42705;50.326;18.772;2024-02-15T00:49:23;98980.27;;;6.43;66.00
56825;BME280;42705;50.326;18.772;2024-02-15T00:54:49;98974.73;;;6.40;65.87
56825;BME280;42705;50.326;18.772;2024-02-15T01:00:12;98981.55;;;6.42;66.04
56825;BME280;42705;50.326;18.772;2024-02-15T01:05:34;98978.96;;;6.47;66.30
56825;BME280;42705;50.326;18.772;2024-02-15T01:10:56;98981.95;;;6.51;66.51
56825;BME280;42705;50.326;18.772;2024-02-15T01:16:18;98980.46;;;6.53;66.54
56825;BME280;42705;50.326;18.772;2024-02-15T01:21:40;98976.12;;;6.50;66.35
56825;BME280;42705;50.326;18.772;2024-02-15T01:27:04;98971.36;;;6.49;66.29
56825;BME280;42705;50.326;18.772;2024-02-15T01:32:30;98962.61;;;6.55;66.42
56825;BME280;42705;50.326;18.772;2024-02-15T01:37:52;98960.73;;;6.60;66.66
56825;BME280;42705;50.326;18.772;2024-02-15T01:43:14;98957.70;;;6.61;66.43
56825;BME280;42705;50.326;18.772;2024-02-15T01:48:40;98952.14;;;6.64;66.72
56825;BME280;42705;50.326;18.772;2024-02-15T01:54:03;98949.89;;;6.70;66.80
56825;BME280;42705;50.326;18.772;2024-02-15T01:59:26;98951.02;;;6.78;66.61
56825;BME280;42705;50.326;18.772;2024-02-15T02:04:48;98943.17;;;6.86;66.25
56825;BME280;42705;50.326;18.772;2024-02-15T02:10:10;98936.08;;;6.91;66.61
56825;BME280;42705;50.326;18.772;2024-02-15T02:15:34;98937.36;;;6.90;66.45
56825;BME280;42705;50.326;18.772;2024-02-15T02:20:58;98931.32;;;6.87;66.46
56825;BME280;42705;50.326;18.772;2024-02-15T02:26:21;98924.33;;;6.88;66.32
56825;BME280;42705;50.326;18.772;2024-02-15T02:31:43;98922.66;;;6.94;66.40
56825;BME280;42705;50.326;18.772;2024-02-15T02:37:05;98923.36;;;7.05;66.45
56825;BME280;42705;50.326;18.772;2024-02-15T02:42:29;98923.90;;;7.12;66.20
56825;BME280;42705;50.326;18.772;2024-02-15T02:47:52;98920.15;;;7.14;66.26
56825;BME280;42705;50.326;18.772;2024-02-15T02:53:15;98918.40;;;7.14;66.23
56825;BME280;42705;50.326;18.772;2024-02-15T02:58:37;98917.39;;;7.13;66.09
56825;BME280;42705;50.326;18.772;2024-02-15T03:04:03;98920.30;;;7.16;65.89
56825;BME280;42705;50.326;18.772;2024-02-15T03:09:25;98921.31;;;7.17;65.77
56825;BME280;42705;50.326;18.772;2024-02-15T03:14:51;98921.05;;;7.10;65.95
56825;BME280;42705;50.326;18.772;2024-02-15T03:20:17;98927.69;;;7.08;65.84
56825;BME280;42705;50.326;18.772;2024-02-15T03:25:42;98933.80;;;7.07;65.85
56825;BME280;42705;50.326;18.772;2024-02-15T03:31:04;98937.13;;;7.07;65.90
56825;BME280;42705;50.326;18.772;2024-02-15T03:36:27;98931.63;;;7.14;65.86
56825;BME280;42705;50.326;18.772;2024-02-15T03:41:50;98928.70;;;7.18;65.80
56825;BME280;42705;50.326;18.772;2024-02-15T03:47:12;98925.83;;;7.17;66.00
56825;BME280;42705;50.326;18.772;2024-02-15T03:52:38;98926.64;;;7.18;65.95
56825;BME280;42705;50.326;18.772;2024-02-15T03:58:00;98927.98;;;7.16;65.90
56825;BME280;42705;50.326;18.772;2024-02-15T04:03:22;98928.88;;;7.16;66.15
56825;BME280;42705;50.326;18.772;2024-02-15T04:08:44;98927.95;;;7.24;66.01
56825;BME280;42705;50.326;18.772;2024-02-15T04:14:06;98930.89;;;7.32;66.04
56825;BME280;42705;50.326;18.772;2024-02-15T04:19:28;98928.86;;;7.33;65.75
56825;BME280;42705;50.326;18.772;2024-02-15T04:24:50;98922.95;;;7.31;65.82
56825;BME280;42705;50.326;18.772;2024-02-15T04:30:12;98922.85;;;7.30;65.95
56825;BME280;42705;50.326;18.772;2024-02-15T04:35:34;98928.48;;;7.27;65.78
56825;BME280;42705;50.326;18.772;2024-02-15T04:40:57;98928.52;;;7.23;65.75
56825;BME280;42705;50.326;18.772;2024-02-15T04:46:22;98930.48;;;7.25;66.03
56825;BME280;42705;50.326;18.772;2024-02-15T04:51:44;98933.17;;;7.26;65.70
56825;BME280;42705;50.326;18.772;2024-02-15T04:57:06;98935.64;;;7.21;65.81
56825;BME280;42705;50.326;18.772;2024-02-15T05:02:33;98938.75;;;7.18;65.84
56825;BME280;42705;50.326;18.772;2024-02-15T05:08:00;98936.17;;;7.16;66.11
56825;BME280;42705;50.326;18.772;2024-02-15T05:13:24;98939.15;;;7.15;65.79
56825;BME280;42705;50.326;18.772;2024-02-15T05:18:46;98944.29;;;7.19;66.14
56825;BME280;42705;50.326;18.772;2024-02-15T05:24:08;98948.36;;;7.17;66.10
56825;BME280;42705;50.326;18.772;2024-02-15T05:29:31;98951.71;;;7.14;66.22
56825;BME280;42705;50.326;18.772;2024-02-15T05:34:58;98949.30;;;7.09;66.19
56825;BME280;42705;50.326;18.772;2024-02-15T05:40:19;98948.77;;;7.04;66.00
56825;BME280;42705;50.326;18.772;2024-02-15T05:45:41;98951.93;;;7.04;66.19
56825;BME280;42705;50.326;18.772;2024-02-15T05:51:04;98959.05;;;7.01;66.36
56825;BME280;42705;50.326;18.772;2024-02-15T05:56:26;98962.79;;;6.94;66.39
56825;BME280;42705;50.326;18.772;2024-02-15T06:01:50;98968.96;;;6.88;66.54
56825;BME280;42705;50.326;18.772;2024-02-15T06:07:12;98974.60;;;6.84;66.31
56825;BME280;42705;50.326;18.772;2024-02-15T06:12:34;98975.97;;;6.79;66.53
56825;BME280;42705;50.326;18.772;2024-02-15T06:17:56;98978.64;;;6.81;66.65
56825;BME280;42705;50.326;18.772;2024-02-15T06:23:19;98979.74;;;6.82;66.76
56825;BME280;42705;50.326;18.772;2024-02-15T06:28:41;98981.84;;;6.82;66.80
56825;BME280;42705;50.326;18.772;2024-02-15T06:34:22;98980.69;;;6.81;66.62
56825;BME280;42705;50.326;18.772;2024-02-15T06:40:03;98981.08;;;6.83;66.92
56825;BME280;42705;50.326;18.772;2024-02-15T06:45:25;98984.79;;;6.90;66.95
56825;BME280;42705;50.326;18.772;2024-02-15T06:50:49;98994.48;;;6.95;66.60
56825;BME280;42705;50.326;18.772;2024-02-15T06:56:11;98994.43;;;6.99;66.84
56825;BME280;42705;50.326;18.772;2024-02-15T07:01:33;98991.13;;;7.04;66.77
56825;BME280;42705;50.326;18.772;2024-02-15T07:06:59;98990.02;;;7.08;66.47
56825;BME280;42705;50.326;18.772;2024-02-15T07:12:23;98992.21;;;7.16;66.76
56825;BME280;42705;50.326;18.772;2024-02-15T07:17:46;99002.52;;;7.26;66.76
56825;BME280;42705;50.326;18.772;2024-02-15T07:23:08;99002.79;;;7.35;66.78
56825;BME280;42705;50.326;18.772;2024-02-15T07:28:30;99004.91;;;7.47;66.22
56825;BME280;42705;50.326;18.772;2024-02-15T07:33:53;99008.80;;;7.59;66.30
56825;BME280;42705;50.326;18.772;2024-02-15T07:39:18;99006.04;;;7.66;66.10
56825;BME280;42705;50.326;18.772;2024-02-15T07:44:46;99009.70;;;7.73;66.32
56825;BME280;42705;50.326;18.772;2024-02-15T07:50:09;99009.05;;;7.80;66.37
56825;BME280;42705;50.326;18.772;2024-02-15T07:55:31;99006.55;;;7.84;66.16
56825;BME280;42705;50.326;18.772;2024-02-15T08:00:53;98998.41;;;7.88;66.28
56825;BME280;42705;50.326;18.772;2024-02-15T08:06:16;98987.30;;;7.98;66.38
56825;BME280;42705;50.326;18.772;2024-02-15T08:11:39;98980.30;;;8.10;66.28
56825;BME280;42705;50.326;18.772;2024-02-15T08:17:02;98978.36;;;8.21;66.10
56825;BME280;42705;50.326;18.772;2024-02-15T08:22:24;98979.89;;;8.28;66.38
56825;BME280;42705;50.326;18.772;2024-02-15T08:27:47;98982.76;;;8.24;66.12
56825;BME280;42705;50.326;18.772;2024-02-15T08:33:11;98980.98;;;8.27;65.99
56825;BME280;42705;50.326;18.772;2024-02-15T08:38:33;98981.89;;;8.41;66.14
56825;BME280;42705;50.326;18.772;2024-02-15T08:43:56;98987.64;;;8.54;65.98
56825;BME280;42705;50.326;18.772;2024-02-15T08:49:22;98985.55;;;8.61;66.20
56825;BME280;42705;50.326;18.772;2024-02-15T08:54:44;98984.73;;;8.67;65.70
56825;BME280;42705;50.326;18.772;2024-02-15T09:00:07;98990.30;;;8.77;65.59
56825;BME280;42705;50.326;18.772;2024-02-15T09:05:35;98995.63;;;8.82;65.85
56825;BME280;42705;50.326;18.772;2024-02-15T09:10:57;98994.58;;;8.80;65.65
56825;BME280;42705;50.326;18.772;2024-02-15T09:16:20;98994.11;;;8.77;65.82
56825;BME280;42705;50.326;18.772;2024-02-15T09:21:43;98995.03;;;8.83;65.54
56825;BME280;42705;50.326;18.772;2024-02-15T09:27:05;98991.42;;;8.94;65.44
56825;BME280;42705;50.326;18.772;2024-02-15T09:32:27;98985.98;;;9.06;65.64
56825;BME280;42705;50.326;18.772;2024-02-15T09:37:49;98982.94;;;9.19;65.65
56825;BME280;42705;50.326;18.772;2024-02-15T09:43:11;98983.91;;;9.38;65.69
56825;BME280;42705;50.326;18.772;2024-02-15T09:48:34;98986.84;;;9.59;65.14
56825;BME280;42705;50.326;18.772;2024-02-15T09:53:57;98986.23;;;9.73;64.62
56825;BME280;42705;50.326;18.772;2024-02-15T09:59:21;98991.09;;;9.85;64.36
56825;BME280;42705;50.326;18.772;2024-02-15T10:04:43;98984.10;;;10.01;64.00
56825;BME280;42705;50.326;18.772;2024-02-15T10:15:39;98977.19;;;10.52;63.28
56825;BME280;42705;50.326;18.772;2024-02-15T10:21:02;98975.27;;;10.77;63.05
56825;BME280;42705;50.326;18.772;2024-02-15T10:26:24;98974.77;;;11.02;62.65
56825;BME280;42705;50.326;18.772;2024-02-15T10:32:06;98975.70;;;11.27;62.06
56825;BME280;42705;50.326;18.772;2024-02-15T10:37:31;98967.14;;;11.55;61.45
56825;BME280;42705;50.326;18.772;2024-02-15T10:42:55;98968.75;;;11.63;60.83
56825;BME280;42705;50.326;18.772;2024-02-15T10:48:20;98962.64;;;11.51;60.30
56825;BME280;42705;50.326;18.772;2024-02-15T10:53:54;98962.45;;;11.55;60.65
56825;BME280;42705;50.326;18.772;2024-02-15T10:59:19;98960.00;;;11.51;60.11
56825;BME280;42705;50.326;18.772;2024-02-15T11:04:41;98958.09;;;11.47;60.20
56825;BME280;42705;50.326;18.772;2024-02-15T11:10:09;98954.05;;;11.41;60.26
56825;BME280;42705;50.326;18.772;2024-02-15T11:15:46;98949.14;;;11.37;60.37
56825;BME280;42705;50.326;18.772;2024-02-15T11:21:12;98946.05;;;11.30;60.24
56825;BME280;42705;50.326;18.772;2024-02-15T11:26:45;98939.59;;;11.32;60.23
56825;BME280;42705;50.326;18.772;2024-02-15T11:32:42;98938.44;;;11.50;60.65
56825;BME280;42705;50.326;18.772;2024-02-15T11:38:27;98932.92;;;11.72;60.29
56825;BME280;42705;50.326;18.772;2024-02-15T11:43:50;98932.80;;;11.82;59.62
56825;BME280;42705;50.326;18.772;2024-02-15T11:49:20;98932.48;;;11.91;59.64
56825;BME280;42705;50.326;18.772;2024-02-15T11:54:42;98931.23;;;12.00;59.06
56825;BME280;42705;50.326;18.772;2024-02-15T12:00:05;98929.86;;;12.04;58.80
56825;BME280;42705;50.326;18.772;2024-02-15T12:05:47;98920.56;;;12.16;58.94
56825;BME280;42705;50.326;18.772;2024-02-15T12:11:29;98914.80;;;12.45;59.23
56825;BME280;42705;50.326;18.772;2024-02-15T12:17:11;98913.46;;;12.63;58.54
56825;BME280;42705;50.326;18.772;2024-02-15T12:22:55;98907.42;;;12.72;58.48
56825;BME280;42705;50.326;18.772;2024-02-15T12:28:17;98902.56;;;12.75;58.11
56825;BME280;42705;50.326;18.772;2024-02-15T12:33:40;98903.64;;;12.69;57.91
56825;BME280;42705;50.326;18.772;2024-02-15T12:39:03;98901.55;;;12.57;57.89
56825;BME280;42705;50.326;18.772;2024-02-15T12:44:32;98897.39;;;12.67;58.00
56825;BME280;42705;50.326;18.772;2024-02-15T12:49:55;98887.98;;;12.77;57.50
56825;BME280;42705;50.326;18.772;2024-02-15T12:55:19;98885.08;;;13.09;57.56
56825;BME280;42705;50.326;18.772;2024-02-15T13:00:41;98890.21;;;13.53;57.00
56825;BME280;42705;50.326;18.772;2024-02-15T13:06:04;98882.94;;;13.87;56.04
56825;BME280;42705;50.326;18.772;2024-02-15T13:11:26;98883.46;;;14.10;56.15
56825;BME280;42705;50.326;18.772;2024-02-15T13:16:48;98878.63;;;13.95;55.42
56825;BME280;42705;50.326;18.772;2024-02-15T13:22:10;98873.20;;;13.88;55.43
56825;BME280;42705;50.326;18.772;2024-02-15T13:27:32;98871.85;;;13.99;55.37
56825;BME280;42705;50.326;18.772;2024-02-15T13:32:55;98867.45;;;14.11;55.45
56825;BME280;42705;50.326;18.772;2024-02-15T13:38:16;98870.88;;;14.04;55.14
56825;BME280;42705;50.326;18.772;2024-02-15T13:43:44;98866.33;;;14.34;54.75
56825;BME280;42705;50.326;18.772;2024-02-15T13:49:06;98854.57;;;17.78;49.86
56825;BME280;42705;50.326;18.772;2024-02-15T13:54:30;98842.79;;;21.77;46.07
56825;BME280;42705;50.326;18.772;2024-02-15T13:59:52;98842.24;;;24.52;43.70
56825;BME280;42705;50.326;18.772;2024-02-15T14:05:14;98841.91;;;25.26;41.95
56825;BME280;42705;50.326;18.772;2024-02-15T14:10:39;98845.70;;;24.13;41.48
56825;BME280;42705;50.326;18.772;2024-02-15T14:16:01;98852.91;;;20.78;42.46
56825;BME280;42705;50.326;18.772;2024-02-15T14:21:25;98854.09;;;18.68;44.33
56825;BME280;42705;50.326;18.772;2024-02-15T14:26:47;98852.73;;;17.62;45.80
56825;BME280;42705;50.326;18.772;2024-02-15T14:32:09;98858.89;;;16.75;47.07
56825;BME280;42705;50.326;18.772;2024-02-15T14:38:10;98861.87;;;15.96;48.01
56825;BME280;42705;50.326;18.772;2024-02-15T14:43:33;98856.77;;;15.05;49.71
56825;BME280;42705;50.326;18.772;2024-02-15T14:48:56;98857.36;;;14.64;50.92
56825;BME280;42705;50.326;18.772;2024-02-15T14:54:20;98860.18;;;14.31;51.23
56825;BME280;42705;50.326;18.772;2024-02-15T14:59:42;98867.98;;;13.94;52.52
56825;BME280;42705;50.326;18.772;2024-02-15T15:05:05;98868.56;;;13.48;52.96
56825;BME280;42705;50.326;18.772;2024-02-15T15:10:47;98870.66;;;13.04;54.00
56825;BME280;42705;50.326;18.772;2024-02-15T15:16:28;98873.77;;;12.72;54.69
56825;BME280;42705;50.326;18.772;2024-02-15T15:21:52;98875.17;;;12.32;55.60
56825;BME280;42705;50.326;18.772;2024-02-15T15:27:18;98881.51;;;12.00;56.40
56825;BME280;42705;50.326;18.772;2024-02-15T15:32:40;98883.28;;;11.76;57.22
56825;BME280;42705;50.326;18.772;2024-02-15T15:38:02;98884.70;;;11.58;57.84
56825;BME280;42705;50.326;18.772;2024-02-15T15:43:26;98891.17;;;11.68;58.09
56825;BME280;42705;50.326;18.772;2024-02-15T15:48:48;98896.20;;;11.70;58.58
56825;BME280;42705;50.326;18.772;2024-02-15T15:54:09;98898.30;;;11.60;59.05
56825;BME280;42705;50.326;18.772;2024-02-15T15:59:31;98898.08;;;11.51;59.52
56825;BME280;42705;50.326;18.772;2024-02-15T16:04:53;98903.89;;;11.38;59.44
56825;BME280;42705;50.326;18.772;2024-02-15T16:10:17;98907.19;;;11.16;60.03
56825;BME280;42705;50.326;18.772;2024-02-15T16:15:42;98915.16;;;10.96;60.56
56825;BME280;42705;50.326;18.772;2024-02-15T16:21:08;98923.78;;;10.81;60.87
56825;BME280;42705;50.326;18.772;2024-02-15T16:26:30;98926.58;;;10.71;61.58
56825;BME280;42705;50.326;18.772;2024-02-15T16:31:51;98934.60;;;10.60;62.08
56825;BME280;42705;50.326;18.772;2024-02-15T16:37:13;98940.77;;;10.45;62.72
56825;BME280;42705;50.326;18.772;2024-02-15T16:42:35;98937.96;;;10.25;63.02
56825;BME280;42705;50.326;18.772;2024-02-15T16:48:04;98946.91;;;10.07;63.58
56825;BME280;42705;50.326;18.772;2024-02-15T16:53:27;98947.06;;;9.97;63.95
56825;BME280;42705;50.326;18.772;2024-02-15T16:58:49;98943.52;;;9.86;64.61
56825;BME280;42705;50.326;18.772;2024-02-15T17:04:14;98946.05;;;9.72;64.75
56825;BME280;42705;50.326;18.772;2024-02-15T17:09:38;98956.98;;;9.64;65.05
56825;BME280;42705;50.326;18.772;2024-02-15T17:15:00;98961.59;;;9.58;65.64
56825;BME280;42705;50.326;18.772;2024-02-15T17:20:22;98962.06;;;9.48;66.06
56825;BME280;42705;50.326;18.772;2024-02-15T17:25:47;98966.75;;;9.37;66.16
56825;BME280;42705;50.326;18.772;2024-02-15T17:31:13;98969.17;;;9.30;66.34
56825;BME280;42705;50.326;18.772;2024-02-15T17:36:36;98974.38;;;9.26;66.88
56825;BME280;42705;50.326;18.772;2024-02-15T17:41:57;98971.48;;;9.21;66.90
56825;BME280;42705;50.326;18.772;2024-02-15T17:47:19;98961.69;;;9.14;67.27
56825;BME280;42705;50.326;18.772;2024-02-15T17:52:43;98966.59;;;9.14;67.63
56825;BME280;42705;50.326;18.772;2024-02-15T17:58:05;98971.46;;;9.14;67.82
56825;BME280;42705;50.326;18.772;2024-02-15T18:03:28;98978.84;;;9.09;67.92
56825;BME280;42705;50.326;18.772;2024-02-15T18:08:50;98981.70;;;8.96;68.06
56825;BME280;42705;50.326;18.772;2024-02-15T18:14:12;98986.11;;;8.88;68.30
56825;BME280;42705;50.326;18.772;2024-02-15T18:19:34;98986.40;;;8.82;68.80
56825;BME280;42705;50.326;18.772;2024-02-15T18:24:56;98989.89;;;8.75;69.03
56825;BME280;42705;50.326;18.772;2024-02-15T18:30:18;98990.70;;;8.71;69.22
56825;BME280;42705;50.326;18.772;2024-02-15T18:35:45;98991.52;;;8.69;69.40
56825;BME280;42705;50.326;18.772;2024-02-15T18:41:07;98992.02;;;8.65;69.47
56825;BME280;42705;50.326;18.772;2024-02-15T18:46:29;98992.02;;;8.65;70.17
56825;BME280;42705;50.326;18.772;2024-02-15T18:51:52;98987.91;;;8.71;70.15
56825;BME280;42705;50.326;18.772;2024-02-15T18:57:14;98985.95;;;8.79;70.38
56825;BME280;42705;50.326;18.772;2024-02-15T19:02:36;98989.04;;;8.79;70.36
56825;BME280;42705;50.326;18.772;2024-02-15T19:07:58;98989.80;;;8.78;70.17
56825;BME280;42705;50.326;18.772;2024-02-15T19:13:21;98991.46;;;8.80;70.11
56825;BME280;42705;50.326;18.772;2024-02-15T19:18:43;98990.38;;;8.76;70.35
56825;BME280;42705;50.326;18.772;2024-02-15T19:24:08;98990.66;;;8.67;70.62
56825;BME280;42705;50.326;18.772;2024-02-15T19:29:30;98990.98;;;8.58;70.49
56825;BME280;42705;50.326;18.772;2024-02-15T19:34:53;98989.14;;;8.55;70.98
56825;BME280;42705;50.326;18.772;2024-02-15T19:40:15;98994.00;;;8.52;71.15
56825;BME280;42705;50.326;18.772;2024-02-15T19:45:38;98992.52;;;8.48;71.28
56825;BME280;42705;50.326;18.772;2024-02-15T19:51:03;98991.45;;;8.49;71.35
56825;BME280;42705;50.326;18.772;2024-02-15T19:56:25;98990.45;;;8.48;71.48
56825;BME280;42705;50.326;18.772;2024-02-15T20:01:52;98994.64;;;8.41;71.68
56825;BME280;42705;50.326;18.772;2024-02-15T20:07:15;98999.33;;;8.34;71.73
56825;BME280;42705;50.326;18.772;2024-02-15T20:12:39;98998.27;;;8.34;71.70
56825;BME280;42705;50.326;18.772;2024-02-15T20:18:03;98996.41;;;8.36;72.20
56825;BME280;42705;50.326;18.772;2024-02-15T20:23:25;98996.02;;;8.36;72.34
56825;BME280;42705;50.326;18.772;2024-02-15T20:28:47;98993.48;;;8.35;72.43
56825;BME280;42705;50.326;18.772;2024-02-15T20:34:09;98992.85;;;8.36;72.44
56825;BME280;42705;50.326;18.772;2024-02-15T20:39:31;98990.33;;;8.37;72.61
56825;BME280;42705;50.326;18.772;2024-02-15T20:44:53;98984.01;;;8.36;72.55
56825;BME280;42705;50.326;18.772;2024-02-15T20:50:15;98987.39;;;8.33;72.75
56825;BME280;42705;50.326;18.772;2024-02-15T20:55:38;98981.80;;;8.31;72.86
56825;BME280;42705;50.326;18.772;2024-02-15T21:01:00;98976.73;;;8.24;73.00
56825;BME280;42705;50.326;18.772;2024-02-15T21:06:22;98978.94;;;8.18;72.91
56825;BME280;42705;50.326;18.772;2024-02-15T21:11:44;98977.73;;;8.15;73.17
56825;BME280;42705;50.326;18.772;2024-02-15T21:17:06;98979.17;;;8.14;73.26
56825;BME280;42705;50.326;18.772;2024-02-15T21:22:32;98976.69;;;8.12;73.35
56825;BME280;42705;50.326;18.772;2024-02-15T21:27:54;98969.11;;;8.08;73.40
56825;BME280;42705;50.326;18.772;2024-02-15T21:33:17;98964.41;;;8.09;73.71
56825;BME280;42705;50.326;18.772;2024-02-15T21:38:39;98961.45;;;8.09;73.95
56825;BME280;42705;50.326;18.772;2024-02-15T21:44:04;98957.13;;;8.08;73.90
56825;BME280;42705;50.326;18.772;2024-02-15T21:49:26;98949.77;;;8.06;74.19
56825;BME280;42705;50.326;18.772;2024-02-15T21:54:48;98947.86;;;8.09;74.03
56825;BME280;42705;50.326;18.772;2024-02-15T22:00:10;98949.07;;;8.11;74.16
56825;BME280;42705;50.326;18.772;2024-02-15T22:05:33;98952.07;;;8.11;74.05
56825;BME280;42705;50.326;18.772;2024-02-15T22:10:56;98947.03;;;8.10;73.98
56825;BME280;42705;50.326;18.772;2024-02-15T22:16:18;98952.08;;;8.13;74.22
56825;BME280;42705;50.326;18.772;2024-02-15T22:21:41;98954.73;;;8.18;74.65
56825;BME280;42705;50.326;18.772;2024-02-15T22:27:03;98956.95;;;8.25;74.36
56825;BME280;42705;50.326;18.772;2024-02-15T22:32:26;98961.43;;;8.33;74.58
56825;BME280;42705;50.326;18.772;2024-02-15T22:37:48;98960.00;;;8.36;74.52
56825;BME280;42705;50.326;18.772;2024-02-15T22:43:10;98955.33;;;8.38;74.51
56825;BME280;42705;50.326;18.772;2024-02-15T22:48:31;98951.52;;;8.43;74.48
56825;BME280;42705;50.326;18.772;2024-02-15T22:53:53;98952.92;;;8.42;74.58
56825;BME280;42705;50.326;18.772;2024-02-15T22:59:15;98957.52;;;8.44;74.63
56825;BME280;42705;50.326;18.772;2024-02-15T23:04:38;98959.10;;;8.51;74.80
56825;BME280;42705;50.326;18.772;2024-02-15T23:10:02;98957.52;;;8.56;74.65
56825;BME280;42705;50.326;18.772;2024-02-15T23:15:27;98964.06;;;8.59;74.74
56825;BME280;42705;50.326;18.772;2024-02-15T23:20:50;98961.67;;;8.66;74.69
56825;BME280;42705;50.326;18.772;2024-02-15T23:26:13;98958.80;;;8.72;74.42
56825;BME280;42705;50.326;18.772;2024-02-15T23:31:35;98959.61;;;8.73;74.47
56825;BME280;42705;50.326;18.772;2024-02-15T23:36:57;98953.20;;;8.74;74.23
56825;BME280;42705;50.326;18.772;2024-02-15T23:42:37;98948.73;;;8.76;74.61
56825;BME280;42705;50.326;18.772;2024-02-15T23:47:59;98947.84;;;8.76;74.42
56825;BME280;42705;50.326;18.772;2024-02-15T23:53:21;98942.11;;;8.76;74.29
56825;BME280;42705;50.326;18.772;2024-02-15T23:58:43;98941.85;;;8.79;74.30
